Time;durP1;ratioP1;P1;durP2;ratioP2;P2;SDS_P1;SDS_P2;PMS_P1;PMS_P2;Temp;Humidity;BMP_temperature;BMP_pressure;BME280_temperature;BME280_humidity;BME280_pressure;Samples;Min_cycle;Max_cycle;Signal;HPM_P1;HPM_P2
2023/10/27 00:00:54;;;;;;;2.75;1.88;;;;;;;-7.45;61.53;97497.53;6285479;28;20048;-68
2023/10/27 00:03:56;;;;;;;2.78;1.80;;;;;;;-7.66;61.31;97507.41;6274357;28;20052;-67
2023/10/27 00:06:57;;;;;;;3.63;2.20;;;;;;;-7.73;62.08;97499.66;6283719;28;20044;-67
2023/10/27 00:10:00;;;;;;;2.55;2.05;;;;;;;-7.83;62.17;97505.44;6276692;28;20424;-68
2023/10/27 00:13:07;;;;;;;3.05;2.22;;;;;;;-7.98;62.02;97505.13;6277184;28;20041;-67
2023/10/27 00:16:09;;;;;;;;;;;;;;;-8.10;62.62;97515.16;6277189;28;20142;-66
2023/10/27 00:19:10;;;;;;;2.45;1.90;;;;;;;-8.26;62.80;97504.66;6280984;28;19951;-68
2023/10/27 00:22:12;;;;;;;3.10;2.72;;;;;;;-8.24;62.43;97508.06;6274388;28;20056;-68
2023/10/27 00:25:13;;;;;;;3.80;2.40;;;;;;;-8.30;63.19;97502.84;6273628;28;20587;-68
2023/10/27 00:28:14;;;;;;;3.22;2.65;;;;;;;-8.36;62.76;97512.97;6257494;28;20071;-67
2023/10/27 00:31:18;;;;;;;3.55;2.72;;;;;;;-8.47;63.26;97494.06;6280819;28;20067;-68
2023/10/27 00:34:22;;;;;;;8.68;3.75;;;;;;;-8.46;62.97;97499.22;6285299;28;20456;-68
2023/10/27 00:37:25;;;;;;;2.92;2.63;;;;;;;-8.39;63.62;97503.59;6280619;28;20060;-67
2023/10/27 00:40:31;;;;;;;5.47;2.90;;;;;;;-8.37;63.55;97512.09;6276566;28;20045;-67
2023/10/27 00:43:35;;;;;;;4.80;2.75;;;;;;;-8.43;63.35;97506.91;6280779;28;20052;-67
2023/10/27 00:46:39;;;;;;;9.95;4.93;;;;;;;-8.38;62.96;97499.31;6258091;28;20049;-68
2023/10/27 00:49:46;;;;;;;6.55;3.05;;;;;;;-8.38;63.32;97489.09;6283074;28;20045;-67
2023/10/27 00:52:49;;;;;;;3.65;2.78;;;;;;;-8.34;63.43;97508.75;6264761;28;20439;-68
2023/10/27 00:55:50;;;;;;;6.18;2.58;;;;;;;-8.25;63.08;97526.78;6280678;28;20049;-68
2023/10/27 00:58:55;;;;;;;4.03;2.65;;;;;;;-8.36;63.32;97508.72;6288229;28;20128;-67
2023/10/27 01:02:01;;;;;;;4.45;2.80;;;;;;;-8.36;63.60;97489.97;6271692;28;20032;-67
2023/10/27 01:05:06;;;;;;;2.38;1.58;;;;;;;-8.20;63.24;97514.97;6283740;28;20033;-67
2023/10/27 01:08:07;;;;;;;2.83;2.10;;;;;;;-8.07;62.84;97528.81;6283737;28;20049;-67
2023/10/27 01:11:12;;;;;;;3.67;2.08;;;;;;;-8.18;62.56;97523.53;6288618;28;20044;-66
2023/10/27 01:14:17;;;;;;;3.35;2.30;;;;;;;-8.20;63.18;97504.78;6280675;28;20072;-67
2023/10/27 01:17:20;;;;;;;4.45;2.25;;;;;;;-8.32;63.34;97496.88;6276638;28;20183;-67
2023/10/27 01:20:24;;;;;;;6.85;2.45;;;;;;;-8.19;62.81;97519.25;6281476;28;20044;-67
2023/10/27 01:23:30;;;;;;;3.15;2.13;;;;;;;-8.13;63.14;97511.69;6288567;28;20037;-66
2023/10/27 01:26:34;;;;;;;5.57;2.60;;;;;;;-8.22;62.82;97506.41;6283391;28;20044;-66
2023/10/27 01:29:35;;;;;;;8.95;3.65;;;;;;;-8.29;62.81;97519.03;6279421;28;20044;-66
2023/10/27 01:32:44;;;;;;;6.47;2.95;;;;;;;-8.38;63.93;97514.59;6279998;28;20044;-67
2023/10/27 01:35:49;;;;;;;5.80;2.65;;;;;;;-8.50;63.86;97504.22;6280194;28;20500;-66
2023/10/27 01:38:53;;;;;;;5.25;2.35;;;;;;;-8.47;63.65;97511.91;6275501;28;20729;-67
2023/10/27 01:41:54;;;;;;;4.43;1.75;;;;;;;-8.32;63.98;97524.97;6288885;28;20139;-66
2023/10/27 01:44:58;;;;;;;2.33;1.75;;;;;;;-8.42;63.14;97503.53;6286528;28;20036;-67
2023/10/27 01:48:02;;;;;;;4.32;2.40;;;;;;;-8.44;64.04;97506.88;6280363;28;20044;-67
2023/10/27 01:51:06;;;;;;;3.03;2.00;;;;;;;-8.41;63.68;97514.59;6285467;28;20492;-67
2023/10/27 01:54:07;;;;;;;2.42;1.65;;;;;;;-8.42;63.61;97513.72;6283188;28;20049;-67
2023/10/27 01:57:09;;;;;;;5.78;2.38;;;;;;;-8.46;63.76;97517.06;6283355;28;20119;-67
2023/10/27 02:00:13;;;;;;;2.38;1.90;;;;;;;-8.51;63.94;97505.03;6280476;28;20036;-67
2023/10/27 02:03:17;;;;;;;3.03;1.95;;;;;;;-8.56;63.89;97519.41;6269070;28;20039;-67
2023/10/27 02:06:25;;;;;;;2.20;2.00;;;;;;;-8.37;64.16;97527.41;6273232;28;20045;-67
2023/10/27 02:09:30;;;;;;;5.75;3.30;;;;;;;-8.42;64.17;97517.97;6281740;28;20059;-67
2023/10/27 02:12:33;;;;;;;5.18;2.70;;;;;;;-8.49;64.05;97511.03;6271034;28;20048;-67
2023/10/27 02:15:38;;;;;;;3.10;1.90;;;;;;;-8.38;64.29;97529.94;6277255;28;20051;-67
2023/10/27 02:18:40;;;;;;;10.52;5.28;;;;;;;-8.32;64.23;97532.63;6265190;28;20515;-67
2023/10/27 02:21:45;;;;;;;11.30;3.60;;;;;;;-8.41;64.00;97514.59;6276858;28;20065;-66
2023/10/27 02:24:50;;;;;;;5.40;3.10;;;;;;;-8.45;64.39;97507.72;6284328;28;20136;-67
2023/10/27 02:27:51;;;;;;;7.55;3.33;;;;;;;-8.42;64.04;97528.19;6278784;28;20135;-68
2023/10/27 02:30:58;;;;;;;7.43;3.08;;;;;;;-8.46;64.42;97526.41;6282333;28;20051;-67
2023/10/27 02:34:07;;;;;;;15.73;4.28;;;;;;;-8.51;65.04;97522.91;6283295;28;20054;-67
2023/10/27 02:37:09;;;;;;;5.00;3.08;;;;;;;-8.55;64.85;97521.97;6265082;28;20567;-67
2023/10/27 02:40:11;;;;;;;25.20;7.20;;;;;;;-8.58;64.86;97529.56;6277690;28;20128;-67
2023/10/27 02:43:15;;;;;;;24.63;6.95;;;;;;;-8.68;65.05;97536.19;6284780;28;20032;-67
2023/10/27 02:46:19;;;;;;;28.00;6.47;;;;;;;-8.77;64.76;97536.00;6264638;28;20045;-67
2023/10/27 02:49:25;;;;;;;17.77;5.60;;;;;;;-8.76;65.25;97547.91;6277848;28;20041;-67
2023/10/27 02:52:29;;;;;;;12.88;4.88;;;;;;;-8.91;65.06;97538.25;6281818;28;20050;-67
2023/10/27 02:55:34;;;;;;;19.33;5.75;;;;;;;-8.87;65.49;97559.56;6282462;28;20048;-67
2023/10/27 02:58:40;;;;;;;22.40;5.45;;;;;;;-8.87;65.82;97551.91;6260149;28;20040;-67
2023/10/27 03:01:46;;;;;;;20.17;5.80;;;;;;;-8.89;65.31;97551.00;6277015;28;20037;-66
2023/10/27 03:04:51;;;;;;;20.42;5.28;;;;;;;-8.91;65.12;97552.69;6276649;28;20032;-67
2023/10/27 03:07:58;;;;;;;34.03;12.15;;;;;;;-8.94;65.26;97548.38;6277304;28;20504;-67
2023/10/27 03:11:01;;;;;;;34.60;15.30;;;;;;;-8.94;65.50;97558.56;6262771;28;20193;-67
2023/10/27 03:14:06;;;;;;;28.77;11.43;;;;;;;-8.89;65.54;97558.66;6277526;28;20040;-67
2023/10/27 03:17:10;;;;;;;27.25;11.40;;;;;;;-8.85;65.78;97568.13;6280421;28;20043;-68
2023/10/27 03:20:17;;;;;;;15.98;8.43;;;;;;;-8.79;65.36;97573.34;6273231;28;20082;-67
2023/10/27 03:23:23;;;;;;;37.40;10.45;;;;;;;-8.73;65.09;97572.63;6280400;28;20187;-67
2023/10/27 03:26:28;;;;;;;23.48;8.95;;;;;;;-8.68;65.22;97566.78;6273169;28;20049;-67
2023/10/27 03:29:30;;;;;;;26.08;8.50;;;;;;;-8.55;65.31;97577.25;6275146;28;20041;-68
2023/10/27 03:32:36;;;;;;;44.65;12.90;;;;;;;-8.44;64.94;97560.47;6282050;28;20397;-67
2023/10/27 03:35:42;;;;;;;33.22;10.60;;;;;;;-8.34;65.09;97570.00;6275153;28;20044;-67
2023/10/27 03:38:50;;;;;;;45.20;13.32;;;;;;;-8.27;64.51;97573.53;6279838;28;20036;-67
2023/10/27 03:41:54;;;;;;;39.72;12.98;;;;;;;-8.19;64.46;97572.00;6278360;28;20049;-67
2023/10/27 03:44:56;;;;;;;37.00;14.80;;;;;;;-8.16;64.83;97578.03;6276414;28;20045;-67
2023/10/27 03:47:59;;;;;;;43.80;17.23;;;;;;;-8.46;64.55;97521.31;6275380;28;20033;-67
2023/10/27 03:51:05;;;;;;;30.75;15.48;;;;;;;-8.01;64.08;97589.38;6281399;28;20040;-67
2023/10/27 03:54:07;;;;;;;24.08;14.25;;;;;;;-7.94;64.21;97583.56;6278006;28;20044;-67
2023/10/27 03:57:08;;;;;;;29.65;16.50;;;;;;;-7.85;64.11;97598.19;6279484;28;20040;-68
2023/10/27 04:00:10;;;;;;;30.70;14.75;;;;;;;-7.78;64.51;97585.56;6279486;28;20033;-68
2023/10/27 04:03:15;;;;;;;37.15;14.43;;;;;;;-7.66;64.44;97591.75;6280865;28;20052;-67
2023/10/27 04:06:19;;;;;;;25.77;12.82;;;;;;;-7.56;64.14;97591.06;6276459;28;20048;-67
2023/10/27 04:09:23;;;;;;;35.47;13.68;;;;;;;-7.45;63.70;97594.66;6277331;28;20044;-69
2023/10/27 04:12:25;;;;;;;45.13;14.93;;;;;;;-7.33;63.57;97594.88;6277266;28;20175;-68
2023/10/27 04:15:29;;;;;;;49.28;14.60;;;;;;;-7.19;63.57;97596.78;6276772;28;20553;-68
2023/10/27 04:18:33;;;;;;;41.65;12.85;;;;;;;-7.04;63.61;97595.34;6277762;28;20052;-69
2023/10/27 04:21:38;;;;;;;33.85;10.88;;;;;;;-6.87;63.32;97600.72;6274031;28;20049;-68
2023/10/27 04:24:42;;;;;;;41.95;12.55;;;;;;;-6.71;63.31;97600.94;6260885;28;20041;-70
2023/10/27 04:27:43;;;;;;;31.30;11.45;;;;;;;-6.59;62.80;97602.00;6280341;28;20048;-68
2023/10/27 04:30:45;;;;;;;32.17;11.05;;;;;;;-6.40;62.60;97608.22;6277053;28;21424;-68
2023/10/27 04:33:49;;;;;;;36.17;12.43;;;;;;;-6.22;62.30;97606.75;6276842;28;20047;-68
2023/10/27 04:36:55;;;;;;;37.92;10.02;;;;;;;-6.03;61.89;97613.81;6278639;28;20041;-68
2023/10/27 04:39:59;;;;;;;36.33;10.32;;;;;;;-5.83;61.55;97606.34;6275928;28;20122;-68
2023/10/27 04:43:04;;;;;;;35.65;10.23;;;;;;;-5.64;61.23;97607.38;6279224;28;20056;-68
2023/10/27 04:46:05;;;;;;;27.75;10.43;;;;;;;-5.59;61.03;97590.34;6279645;28;20052;-68
2023/10/27 04:49:10;;;;;;;37.83;10.00;;;;;;;-5.20;61.27;97604.41;6276974;28;20534;-76
2023/10/27 04:52:13;;;;;;;32.92;8.98;;;;;;;-5.01;60.65;97601.16;6275808;28;20040;-73
2023/10/27 04:55:18;;;;;;;25.33;7.80;;;;;;;-4.74;60.11;97609.91;6277372;28;20053;-68
2023/10/27 04:58:23;;;;;;;24.02;8.23;;;;;;;-4.47;59.70;97616.06;6278799;28;20056;-69
2023/10/27 05:01:30;;;;;;;29.95;8.80;;;;;;;-4.25;59.25;97599.91;6279089;28;20045;-72
2023/10/27 05:04:36;;;;;;;16.45;7.15;;;;;;;-3.89;58.60;97608.66;6277708;28;20048;-73
2023/10/27 05:07:40;;;;;;;16.02;7.13;;;;;;;-3.56;57.50;97607.06;6266065;28;22003;-76
2023/10/27 05:10:47;;;;;;;19.05;7.55;;;;;;;-2.16;55.41;97600.16;6278790;28;20385;-75
2023/10/27 05:13:52;;;;;;;22.67;8.65;;;;;;;2.09;48.66;97609.22;6264365;28;20043;-71
2023/10/27 05:17:00;;;;;;;8.55;3.50;;;;;;;5.77;40.25;97609.00;6243681;28;20122;-74
2023/10/27 05:20:05;;;;;;;9.50;3.92;;;;;;;8.68;36.97;97612.41;6260443;28;20107;-71
2023/10/27 05:23:12;;;;;;;15.57;7.32;;;;;;;11.11;33.78;97612.47;6232463;28;20080;-71
2023/10/27 05:26:16;;;;;;;6.40;3.22;;;;;;;12.43;31.36;97609.31;6226958;28;20033;-72
2023/10/27 05:29:20;;;;;;;7.18;2.67;;;;;;;13.55;30.20;97610.22;6236792;28;20050;-73
2023/10/27 05:32:27;;;;;;;11.65;5.50;;;;;;;14.67;28.44;97621.25;6229590;28;20521;-73
2023/10/27 05:35:33;;;;;;;7.03;2.70;;;;;;;14.93;27.46;97616.78;6230280;28;20156;-75
2023/10/27 05:38:40;;;;;;;6.03;2.70;;;;;;;15.11;26.84;97604.84;6235320;28;20702;-71
2023/10/27 05:41:50;;;;;;;13.13;6.68;;;;;;;15.46;25.55;97604.13;6237230;28;20037;-70
2023/10/27 05:44:56;;;;;;;15.40;6.65;;;;;;;15.49;25.14;97598.59;6239555;28;20523;-71
2023/10/27 05:48:04;;;;;;;10.32;5.75;;;;;;;16.29;23.61;97592.66;6234158;28;20048;-69
2023/10/27 05:51:05;;;;;;;9.73;4.22;;;;;;;17.03;23.63;97593.94;6239751;28;20049;-70
2023/10/27 05:54:10;;;;;;;18.55;8.43;;;;;;;17.72;22.42;97607.00;6239835;28;20420;-71
2023/10/27 05:57:14;;;;;;;31.90;13.05;;;;;;;16.97;21.95;97599.75;6251130;28;20049;-71
2023/10/27 06:00:18;;;;;;;41.47;14.57;;;;;;;16.88;22.13;97599.66;6231387;28;20037;-70
2023/10/27 06:03:27;;;;;;;33.10;12.18;;;;;;;17.17;20.90;97594.66;6234777;28;20045;-71
2023/10/27 06:06:28;;;;;;;30.92;10.68;;;;;;;15.96;21.46;97596.06;6231896;28;20568;-71
2023/10/27 06:09:32;;;;;;;27.65;10.30;;;;;;;15.08;22.39;97594.47;6232602;28;20666;-70
2023/10/27 06:12:34;;;;;;;24.58;8.10;;;;;;;15.31;22.03;97597.28;6232302;28;20199;-69
2023/10/27 06:15:38;;;;;;;16.27;7.68;;;;;;;15.38;20.88;97587.94;6234826;28;20069;-69
2023/10/27 06:18:42;;;;;;;17.75;7.70;;;;;;;14.58;21.27;97590.97;6240123;28;20081;-68
2023/10/27 06:21:49;;;;;;;15.80;8.07;;;;;;;14.18;21.82;97583.06;6237069;28;20190;-69
2023/10/27 06:24:54;;;;;;;11.35;6.72;;;;;;;14.40;21.60;97586.91;6238993;28;20539;-68
2023/10/27 06:27:59;;;;;;;15.70;6.88;;;;;;;14.55;21.42;97576.13;6236497;28;20053;-69
2023/10/27 06:31:03;;;;;;;;;;;;;;;15.77;21.94;97584.19;6234274;28;20508;-69
2023/10/27 06:34:06;;;;;;;;;;;;;;;16.45;21.24;97595.84;6242433;28;19921;-70
2023/10/27 06:37:12;;;;;;;6.30;2.88;;;;;;;16.01;20.43;97589.44;6233818;28;19921;-69
2023/10/27 06:40:14;;;;;;;5.93;3.28;;;;;;;16.79;20.01;97585.28;6235609;28;20052;-69
2023/10/27 06:43:20;;;;;;;4.25;2.55;;;;;;;18.77;18.07;97587.59;6233288;28;20049;-70
2023/10/27 06:46:25;;;;;;;5.50;2.55;;;;;;;18.80;17.05;97582.00;6228367;28;20046;-72
2023/10/27 06:49:31;;;;;;;3.58;1.60;;;;;;;18.67;16.88;97584.84;6229903;28;20038;-73
2023/10/27 06:52:36;;;;;;;5.20;1.80;;;;;;;19.37;17.13;97574.31;6230753;28;20046;-74
2023/10/27 06:55:43;;;;;;;3.78;1.73;;;;;;;19.98;15.91;97584.78;6231974;28;20060;-68
2023/10/27 06:58:45;;;;;;;3.38;1.70;;;;;;;19.10;16.33;97578.44;6232441;28;20744;-73
2023/10/27 07:01:52;;;;;;;4.63;2.45;;;;;;;18.51;17.30;97587.13;6235863;28;20061;-73
2023/10/27 07:04:54;;;;;;;3.65;1.17;;;;;;;18.95;16.64;97582.47;6233611;28;20049;-73
2023/10/27 07:07:58;;;;;;;2.78;1.52;;;;;;;18.56;16.71;97590.25;6232191;28;20046;-72
2023/10/27 07:11:07;;;;;;;2.53;1.80;;;;;;;18.27;17.00;97590.06;6235122;28;20060;-71
2023/10/27 07:14:15;;;;;;;2.53;1.02;;;;;;;19.11;16.80;97584.63;6229629;28;20079;-71
2023/10/27 07:17:22;;;;;;;1.85;0.90;;;;;;;20.61;15.69;97587.00;6231754;28;20042;-71
2023/10/27 07:20:27;;;;;;;1.60;0.95;;;;;;;22.66;14.70;97576.63;6234063;28;20045;-72
2023/10/27 07:23:29;;;;;;;2.63;1.10;;;;;;;24.84;13.58;97567.50;6232890;28;20041;-72
2023/10/27 07:26:37;;;;;;;1.08;0.68;;;;;;;24.80;13.00;97573.44;6231285;28;20050;-70
2023/10/27 07:29:41;;;;;;;2.35;0.60;;;;;;;23.91;13.59;97567.06;6231223;28;20050;-71
2023/10/27 07:32:48;;;;;;;2.45;0.80;;;;;;;23.74;13.65;97569.72;6231970;28;20053;-72
2023/10/27 07:35:53;;;;;;;2.35;0.95;;;;;;;22.71;13.72;97555.53;6227915;28;20048;-69
2023/10/27 07:38:59;;;;;;;1.02;0.52;;;;;;;21.18;14.32;97555.66;6232898;28;20045;-72
2023/10/27 07:42:04;;;;;;;5.95;3.80;;;;;;;20.41;15.07;97543.41;6231352;28;20071;-72
2023/10/27 07:45:06;;;;;;;3.15;1.60;;;;;;;20.88;15.08;97546.06;6236331;28;20128;-72
2023/10/27 07:48:10;;;;;;;0.85;0.77;;;;;;;21.11;14.87;97551.03;6229474;28;20175;-72
2023/10/27 07:51:17;;;;;;;1.08;0.80;;;;;;;20.37;15.14;97548.19;6232306;28;20042;-71
2023/10/27 07:54:18;;;;;;;2.55;0.85;;;;;;;20.06;15.47;97544.03;6225011;28;20091;-72
2023/10/27 07:57:21;;;;;;;1.58;0.75;;;;;;;19.50;15.50;97553.53;6237522;28;20057;-72
2023/10/27 08:00:26;;;;;;;0.82;0.60;;;;;;;16.66;17.39;97539.34;6235044;28;20049;-72
2023/10/27 08:03:33;;;;;;;1.00;0.85;;;;;;;14.98;18.97;97545.75;6234967;28;20068;-72
2023/10/27 08:06:37;;;;;;;2.72;1.83;;;;;;;14.36;19.47;97536.81;6235104;28;20046;-72
2023/10/27 08:09:42;;;;;;;1.73;1.15;;;;;;;13.74;19.86;97523.44;6236613;28;20058;-72
2023/10/27 08:12:44;;;;;;;0.93;0.60;;;;;;;13.44;19.94;97524.50;6238615;28;20436;-72
2023/10/27 08:15:50;;;;;;;0.82;0.75;;;;;;;12.68;20.59;97535.56;6234577;28;20049;-71
2023/10/27 08:18:53;;;;;;;0.98;0.70;;;;;;;12.25;21.15;97526.81;6229154;28;20493;-71
2023/10/27 08:21:55;;;;;;;1.77;0.90;;;;;;;12.61;20.96;97528.97;6232192;28;20080;-71
2023/10/27 08:25:01;;;;;;;1.42;0.77;;;;;;;13.02;20.61;97526.34;6239665;28;20045;-71
2023/10/27 08:28:12;;;;;;;1.58;0.85;;;;;;;12.45;21.05;97529.06;6231577;28;20041;-71
2023/10/27 08:31:20;;;;;;;1.35;0.75;;;;;;;11.62;21.87;97533.19;6237752;28;20061;-71
2023/10/27 08:34:24;;;;;;;1.90;1.05;;;;;;;11.55;22.33;97508.97;6237397;28;20634;-71
2023/10/27 08:37:28;;;;;;;2.72;1.08;;;;;;;12.56;21.48;97529.25;6232492;28;20041;-71
2023/10/27 08:40:32;;;;;;;1.15;1.00;;;;;;;12.00;21.65;97517.78;6238891;28;20570;-71
2023/10/27 08:43:37;;;;;;;1.10;0.70;;;;;;;11.98;21.98;97503.81;6235924;28;20053;-71
2023/10/27 08:46:44;;;;;;;1.00;0.90;;;;;;;12.80;21.47;97515.47;6237931;28;20456;-71
2023/10/27 08:49:47;;;;;;;1.15;0.90;;;;;;;12.81;21.59;97510.06;6236776;28;20037;-72
2023/10/27 08:52:50;;;;;;;0.70;0.70;;;;;;;12.79;21.73;97509.34;6239322;28;20516;-71
2023/10/27 08:55:56;;;;;;;0.90;0.80;;;;;;;11.97;22.40;97512.66;6238483;28;20532;-71
2023/10/27 08:59:00;;;;;;;1.05;0.90;;;;;;;11.79;22.76;97504.03;6234588;28;20042;-71
2023/10/27 09:02:05;;;;;;;1.00;0.90;;;;;;;12.41;22.15;97501.19;6238219;28;20045;-71
2023/10/27 09:05:08;;;;;;;1.67;0.88;;;;;;;11.86;22.68;97494.84;6236087;28;20124;-70
2023/10/27 09:08:13;;;;;;;2.35;1.05;;;;;;;11.85;22.70;97492.28;6234564;28;20037;-71
2023/10/27 09:11:17;;;;;;;1.42;1.00;;;;;;;11.28;23.42;97492.97;6236814;28;20369;-72
2023/10/27 09:14:23;;;;;;;2.33;1.40;;;;;;;10.66;24.22;97494.75;6241457;28;20634;-71
2023/10/27 09:17:24;;;;;;;3.00;1.90;;;;;;;11.35;23.68;97478.53;6240178;28;20133;-70
2023/10/27 09:20:30;;;;;;;1.45;1.20;;;;;;;11.69;23.37;97487.06;6239730;28;20706;-70
2023/10/27 09:23:44;;;;;;;1.83;1.05;;;;;;;11.90;23.21;97479.69;6236422;28;20499;-72
2023/10/27 09:26:51;;;;;;;1.88;1.23;;;;;;;12.27;22.73;97482.72;6237415;28;20037;-71
2023/10/27 09:29:57;;;;;;;1.73;1.20;;;;;;;12.74;22.22;97492.09;6239635;28;20037;-71
2023/10/27 09:33:23;;;;;;;2.22;1.00;;;;;;;12.01;22.79;97477.25;6239199;28;20050;-71
2023/10/27 09:36:25;;;;;;;3.03;1.40;;;;;;;11.48;23.27;97473.38;6243150;28;20053;-72
2023/10/27 09:39:28;;;;;;;1.92;1.30;;;;;;;11.08;23.52;97470.41;6237143;28;20595;-71
2023/10/27 09:42:35;;;;;;;3.38;1.83;;;;;;;10.37;24.52;97478.78;6238784;28;20138;-71
2023/10/27 09:45:38;;;;;;;2.55;1.20;;;;;;;10.39;24.36;97470.78;6240432;28;20052;-72
2023/10/27 09:48:44;;;;;;;2.38;1.25;;;;;;;10.03;25.11;97470.03;6227267;28;20614;-71
2023/10/27 09:51:46;;;;;;;4.65;1.40;;;;;;;9.94;24.97;97470.53;6240129;28;20056;-72
2023/10/27 09:54:52;;;;;;;1.50;1.13;;;;;;;9.06;25.56;97445.25;6240745;28;20057;-71
2023/10/27 09:58:01;;;;;;;2.08;1.23;;;;;;;9.21;25.78;97472.50;6240748;28;20041;-72
2023/10/27 10:01:10;;;;;;;2.17;1.42;;;;;;;10.08;25.05;97477.69;6237535;28;20064;-72
2023/10/27 10:04:11;;;;;;;1.83;1.60;;;;;;;9.94;24.94;97472.31;6229720;28;20128;-72
2023/10/27 10:07:26;;;;;;;2.17;1.13;;;;;;;9.73;25.21;97469.84;6239057;28;20041;-72
2023/10/27 10:10:35;;;;;;;1.60;1.23;;;;;;;9.28;25.52;97475.66;6241840;28;20040;-72
2023/10/27 10:13:48;;;;;;;1.30;1.15;;;;;;;8.85;26.05;97462.03;6241184;28;20187;-72
2023/10/27 10:16:52;;;;;;;2.33;1.55;;;;;;;8.29;26.75;97458.53;6242534;28;20441;-71
2023/10/27 10:19:58;;;;;;;1.63;0.95;;;;;;;8.17;26.85;97459.09;6240822;28;20041;-73
2023/10/27 10:23:03;;;;;;;2.35;1.10;;;;;;;7.69;27.06;97447.28;6230769;28;20424;-71
2023/10/27 10:26:09;;;;;;;1.77;1.33;;;;;;;7.01;28.17;97444.91;6238134;28;20046;-71
2023/10/27 10:29:29;;;;;;;1.92;1.13;;;;;;;6.98;28.16;97450.28;6240436;28;20045;-72
2023/10/27 10:32:34;;;;;;;1.38;1.05;;;;;;;6.58;28.74;97454.50;6232809;28;20049;-71
2023/10/27 10:35:38;;;;;;;2.28;1.00;;;;;;;6.23;28.99;97446.28;6234988;28;20136;-72
2023/10/27 10:39:10;;;;;;;1.80;1.20;;;;;;;6.65;28.75;97458.59;6239831;28;20822;-71
2023/10/27 10:42:18;;;;;;;1.60;1.20;;;;;;;7.10;28.41;97449.75;6237340;28;20509;-73
2023/10/27 10:45:28;;;;;;;1.70;1.17;;;;;;;6.61;28.63;97396.84;6232398;28;20037;-71
2023/10/27 10:48:39;;;;;;;1.67;0.95;;;;;;;6.01;29.76;97450.63;6235342;28;20073;-70
2023/10/27 10:51:43;;;;;;;2.92;1.70;;;;;;;5.43;30.57;97453.53;6236841;28;20050;-71
2023/10/27 10:54:52;;;;;;;2.80;1.25;;;;;;;5.19;30.95;97457.84;6235271;28;20049;-72
2023/10/27 10:57:55;;;;;;;3.25;1.77;;;;;;;4.62;31.82;97445.84;6236515;28;20042;-72
2023/10/27 11:01:03;;;;;;;5.32;2.13;;;;;;;4.04;32.79;97436.28;6226023;28;20038;-72
2023/10/27 11:04:04;;;;;;;12.70;4.90;;;;;;;3.60;33.85;97430.63;6233549;28;20060;-73
2023/10/27 11:07:18;;;;;;;21.63;9.00;;;;;;;3.27;34.28;97431.56;6240892;28;20096;-71
2023/10/27 11:10:25;;;;;;;21.75;8.90;;;;;;;3.11;34.75;97431.09;6238805;28;20037;-72
2023/10/27 11:13:29;;;;;;;27.35;12.82;;;;;;;3.00;35.13;97443.53;6237679;28;20175;-71
2023/10/27 11:16:36;;;;;;;26.73;11.32;;;;;;;2.80;35.36;97436.22;6238964;28;20051;-73
2023/10/27 11:19:55;;;;;;;25.38;11.80;;;;;;;2.81;35.72;97432.75;6235548;28;20029;-72
2023/10/27 11:23:13;;;;;;;36.95;17.98;;;;;;;3.03;35.57;97433.94;6238396;28;20038;-72
2023/10/27 11:26:23;;;;;;;49.22;21.77;;;;;;;3.05;35.53;97437.31;6232060;28;20111;-73
2023/10/27 11:29:30;;;;;;;71.05;31.52;;;;;;;2.80;36.24;97436.22;6233557;28;20060;-73
2023/10/27 11:32:32;;;;;;;73.45;31.52;;;;;;;2.15;36.94;97431.72;6238400;28;20052;-73
2023/10/27 11:35:45;;;;;;;;;;;;;;;1.74;37.56;97438.66;6235662;28;20096;-72
2023/10/27 11:38:51;;;;;;;40.67;18.98;;;;;;;1.24;38.70;97440.50;6234715;28;19924;-73
2023/10/27 11:42:01;;;;;;;46.65;20.05;;;;;;;0.82;39.35;97438.69;6235598;28;20110;-72
2023/10/27 11:45:08;;;;;;;44.58;19.65;;;;;;;0.54;40.27;97427.03;6236214;28;20049;-75
2023/10/27 11:48:13;;;;;;;45.58;19.70;;;;;;;0.32;41.15;97429.97;6228628;28;20056;-71
2023/10/27 11:51:19;;;;;;;44.25;19.60;;;;;;;0.14;40.94;97425.94;6232764;28;20048;-71
2023/10/27 11:54:23;;;;;;;39.97;19.02;;;;;;;-0.10;41.18;97419.38;6225425;28;20468;-71
2023/10/27 11:57:29;;;;;;;40.30;16.30;;;;;;;-0.26;42.11;97423.88;6229461;28;20049;-68
2023/10/27 12:00:38;;;;;;;35.38;16.23;;;;;;;-0.51;42.74;97418.19;6236361;28;20061;-75
2023/10/27 12:03:43;;;;;;;34.25;13.27;;;;;;;-0.62;42.62;97414.88;6232967;28;20056;-78
2023/10/27 12:06:46;;;;;;;31.80;12.85;;;;;;;-0.67;43.19;97406.31;6239551;28;20459;-72
2023/10/27 12:09:50;;;;;;;;;;;;;;;-0.69;42.46;97406.31;6239756;28;20045;-76
2023/10/27 12:12:55;;;;;;;35.77;15.07;;;;;;;-0.88;43.37;97401.38;6235963;28;19920;-73
2023/10/27 12:16:01;;;;;;;33.47;13.63;;;;;;;-1.04;43.54;97405.88;6230411;28;20046;-73
2023/10/27 12:19:09;;;;;;;31.25;14.00;;;;;;;-1.07;43.84;97409.34;6236217;28;20080;-76
2023/10/27 12:22:11;;;;;;;26.05;12.15;;;;;;;-1.08;44.27;97414.53;6247314;28;20045;-75
2023/10/27 12:25:15;;;;;;;28.52;12.65;;;;;;;-1.26;44.74;97400.06;6239458;28;20509;-76
2023/10/27 12:28:42;;;;;;;28.10;13.45;;;;;;;-1.35;44.95;97395.84;6238830;28;20057;-75
2023/10/27 12:31:43;;;;;;;28.13;12.00;;;;;;;-1.47;45.17;97391.66;6236763;28;20041;-75
2023/10/27 12:34:49;;;;;;;28.05;12.25;;;;;;;-1.49;45.62;97403.72;6242660;28;20504;-73
2023/10/27 12:37:53;;;;;;;26.50;11.77;;;;;;;-1.62;46.03;97389.19;6244842;28;20405;-75
2023/10/27 12:40:59;;;;;;;19.85;9.68;;;;;;;-1.68;46.77;97403.00;6238879;28;20139;-71
2023/10/27 12:44:03;;;;;;;;;;;;;;;-1.68;46.14;97412.47;6237895;28;20041;-68
2023/10/27 12:47:10;;;;;;;22.27;10.38;;;;;;;-1.89;46.64;97413.50;6239868;28;19921;-75
2023/10/27 12:50:15;;;;;;;19.60;9.13;;;;;;;-1.97;47.29;97408.41;6235965;28;20512;-76
2023/10/27 12:53:21;;;;;;;16.70;7.72;;;;;;;-1.97;47.61;97418.72;6234115;28;20134;-69
2023/10/27 12:56:25;;;;;;;14.55;7.18;;;;;;;-2.02;47.41;97412.72;6239436;28;20060;-71
2023/10/27 12:59:28;;;;;;;13.10;6.00;;;;;;;-2.09;48.28;97411.91;6241407;28;20053;-68
2023/10/27 13:02:38;;;;;;;13.70;5.63;;;;;;;-2.10;48.37;97424.78;6243345;28;20092;-72
2023/10/27 13:05:40;;;;;;;7.00;4.10;;;;;;;-2.08;48.48;97423.06;6239243;28;20049;-65
2023/10/27 13:08:48;;;;;;;6.55;3.75;;;;;;;-2.16;49.29;97422.25;6241102;28;20045;-65
2023/10/27 13:11:54;;;;;;;9.73;4.47;;;;;;;-2.30;49.62;97412.03;6229635;28;20568;-74
2023/10/27 13:14:59;;;;;;;7.75;3.47;;;;;;;-2.22;49.63;97419.72;6238886;28;20061;-71
2023/10/27 13:18:03;;;;;;;6.93;3.25;;;;;;;-2.34;49.89;97416.34;6239258;28;20544;-71
2023/10/27 13:21:15;;;;;;;9.27;3.42;;;;;;;-2.30;50.23;97418.03;6241958;28;20537;-71
2023/10/27 13:24:19;;;;;;;4.70;2.13;;;;;;;-2.39;49.58;97414.66;6235120;28;20053;-73
2023/10/27 13:27:25;;;;;;;7.10;3.03;;;;;;;-2.37;50.30;97413.78;6235567;28;20053;-73
2023/10/27 13:30:26;;;;;;;12.50;3.10;;;;;;;-2.38;49.70;97412.06;6229188;28;20046;-73
2023/10/27 13:33:33;;;;;;;7.22;2.95;;;;;;;-2.10;50.05;97417.06;6234347;28;20049;-73
2023/10/27 13:36:40;;;;;;;8.55;2.55;;;;;;;-2.20;50.55;97402.53;6234422;28;20135;-76
2023/10/27 13:39:47;;;;;;;5.22;2.20;;;;;;;-2.26;50.52;97409.44;6231859;28;20045;-70
2023/10/27 13:42:54;;;;;;;2.47;1.83;;;;;;;-2.29;50.33;97403.44;6236110;28;20090;-68
2023/10/27 13:46:00;;;;;;;7.35;2.22;;;;;;;-2.51;51.08;97388.09;6243749;28;20455;-70
2023/10/27 13:49:09;;;;;;;7.18;2.58;;;;;;;-2.62;50.82;97399.31;6230718;28;20586;-71
2023/10/27 13:52:14;;;;;;;4.95;1.40;;;;;;;-2.45;50.80;97402.66;6238192;28;20095;-75
2023/10/27 13:55:16;;;;;;;8.60;2.28;;;;;;;-2.69;50.70;97395.03;6234104;28;20045;-71
2023/10/27 13:58:19;;;;;;;3.50;2.00;;;;;;;-2.65;50.84;97391.59;6236932;28;20092;-67
2023/10/27 14:01:26;;;;;;;5.45;2.00;;;;;;;-2.54;50.70;97387.25;6241589;28;20037;-76
2023/10/27 14:04:31;;;;;;;10.90;4.70;;;;;;;-2.53;50.84;97383.81;6240903;28;20045;-78
2023/10/27 14:07:35;;;;;;;3.85;2.00;;;;;;;-2.53;50.82;97383.81;6245043;28;20037;-74
2023/10/27 14:10:38;;;;;;;5.45;2.05;;;;;;;-2.45;50.37;97379.47;6242341;28;20084;-74
2023/10/27 14:13:47;;;;;;;6.60;1.95;;;;;;;-2.36;50.57;97381.13;6232410;28;20046;-71
2023/10/27 14:16:51;;;;;;;7.85;2.40;;;;;;;-2.29;50.26;97388.84;6235685;28;20120;-72
2023/10/27 14:19:53;;;;;;;6.15;1.92;;;;;;;-2.32;50.46;97388.84;6230966;28;20060;-67
2023/10/27 14:23:00;;;;;;;6.78;2.33;;;;;;;-2.23;50.34;97384.50;6230093;28;20103;-69
2023/10/27 14:26:11;;;;;;;4.40;1.55;;;;;;;-2.28;50.40;97380.22;6230075;28;20041;-69
2023/10/27 14:29:15;;;;;;;3.38;1.80;;;;;;;-2.34;50.53;97371.69;6229160;28;20556;-72